Time;durP1;ratioP1;P1;durP2;ratioP2;P2;SDS_P1;SDS_P2;PMS_P1;PMS_P2;Temp;Humidity;BMP_temperature;BMP_pressure;BME280_temperature;BME280_humidity;BME280_pressure;Samples;Min_cycle;Max_cycle;Signal;HPM_P1;HPM_P2
2022/05/07 00:03:02;;;;;;;9.15;6.47;;;;;;;10.75;58.11;100599.38;10321987;28;20054;-78
2022/05/07 00:08:05;;;;;;;7.85;6.35;;;;;;;10.88;58.07;100595.25;10323894;28;20137;-78
2022/05/07 00:13:06;;;;;;;9.93;7.00;;;;;;;10.85;58.02;100590.13;10334059;28;20089;-78
2022/05/07 00:18:10;;;;;;;10.65;7.28;;;;;;;10.57;58.01;100599.44;10329043;28;20362;-78
2022/05/07 00:23:13;;;;;;;11.23;7.13;;;;;;;10.44;58.42;100596.56;10326108;28;20474;-78
2022/05/07 00:28:14;;;;;;;10.07;7.45;;;;;;;10.14;58.74;100592.81;10334915;28;20143;-78
2022/05/07 00:33:16;;;;;;;11.43;6.53;;;;;;;10.21;59.02;100595.09;10314953;28;20463;-78
2022/05/07 00:38:18;;;;;;;9.75;7.50;;;;;;;10.36;58.32;100593.47;10324760;28;20081;-78
2022/05/07 00:43:51;;;;;;;9.15;7.07;;;;;;;10.07;59.33;100594.91;10332999;28;20046;-77
2022/05/07 00:48:54;;;;;;;7.65;6.35;;;;;;;10.07;58.99;100594.91;10333942;28;20151;-78
2022/05/07 00:53:56;;;;;;;8.40;6.32;;;;;;;10.20;59.09;100589.91;10336748;28;20085;-78
2022/05/07 00:58:58;;;;;;;9.18;6.95;;;;;;;10.26;59.12;100589.63;10311979;28;20061;-78
2022/05/07 01:04:01;;;;;;;9.55;7.15;;;;;;;10.20;59.10;100585.53;10309097;28;20768;-78
2022/05/07 01:09:02;;;;;;;8.77;7.03;;;;;;;10.13;59.41;100592.00;10309476;28;20097;-78
2022/05/07 01:14:05;;;;;;;9.90;8.07;;;;;;;10.08;59.48;100582.66;10339124;28;20815;-78
2022/05/07 01:19:06;;;;;;;12.27;9.48;;;;;;;9.95;59.32;100578.94;10318842;28;20085;-78
2022/05/07 01:24:08;;;;;;;10.70;9.45;;;;;;;9.57;59.69;100585.88;10324334;28;20053;-78
2022/05/07 01:29:10;;;;;;;10.85;9.07;;;;;;;9.56;60.16;100592.84;10326250;28;20134;-78
2022/05/07 01:34:12;;;;;;;12.55;7.68;;;;;;;9.65;60.07;100587.22;10327608;28;20152;-78
2022/05/07 01:39:13;;;;;;;11.20;7.80;;;;;;;9.72;59.38;100589.59;10332631;28;20081;-78
2022/05/07 01:44:15;;;;;;;9.38;7.32;;;;;;;9.69;59.52;100587.97;10320256;28;20136;-78
2022/05/07 01:49:17;;;;;;;9.90;6.80;;;;;;;9.67;59.66;100579.34;10316927;28;20141;-78
2022/05/07 01:54:19;;;;;;;9.85;8.45;;;;;;;9.64;59.67;100574.25;10318267;28;20050;-78
2022/05/07 01:59:20;;;;;;;11.32;10.10;;;;;;;9.06;59.93;100586.41;10325867;28;20116;-78
2022/05/07 02:04:22;;;;;;;11.35;8.63;;;;;;;8.94;61.00;100586.94;10344487;28;20054;-78
2022/05/07 02:09:24;;;;;;;10.10;8.40;;;;;;;9.17;60.77;100580.75;10345958;28;20319;-78
2022/05/07 02:14:26;;;;;;;10.05;8.82;;;;;;;9.18;60.42;100575.44;10342013;28;20047;-78
2022/05/07 02:19:28;;;;;;;12.35;9.52;;;;;;;9.09;60.50;100583.69;10312896;28;20107;-78
2022/05/07 02:24:30;;;;;;;10.48;8.77;;;;;;;9.06;60.78;100580.34;10315427;28;20103;-78
2022/05/07 02:29:31;;;;;;;10.13;8.48;;;;;;;9.12;60.76;100573.09;10320484;28;20062;-78
2022/05/07 02:34:35;;;;;;;9.90;8.90;;;;;;;8.98;60.58;100577.22;10333047;28;20521;-78
2022/05/07 02:39:37;;;;;;;11.68;9.75;;;;;;;9.00;60.63;100570.16;10329213;28;20447;-78
2022/05/07 02:44:39;;;;;;;11.40;9.05;;;;;;;9.02;60.52;100571.81;10340506;28;20081;-78
2022/05/07 02:49:41;;;;;;;10.32;9.30;;;;;;;9.04;60.38;100575.19;10333169;28;20112;-78
2022/05/07 02:54:43;;;;;;;10.30;9.20;;;;;;;9.00;60.31;100581.47;10338569;28;20163;-78
2022/05/07 02:59:45;;;;;;;12.23;10.93;;;;;;;8.61;60.63;100585.75;10343527;28;20049;-77
2022/05/07 03:04:47;;;;;;;11.90;9.65;;;;;;;8.50;61.13;100580.13;10319886;28;20100;-78
2022/05/07 03:09:49;;;;;;;11.30;9.85;;;;;;;8.62;61.20;100580.47;10334638;28;20507;-77
2022/05/07 03:14:50;;;;;;;11.40;10.20;;;;;;;8.62;61.10;100584.84;10342671;28;20180;-78
2022/05/07 03:19:52;;;;;;;15.40;10.82;;;;;;;8.49;61.10;100584.50;10331137;28;20128;-78
2022/05/07 03:24:54;;;;;;;11.80;10.15;;;;;;;8.50;61.10;100585.34;10325203;28;20046;-78
2022/05/07 03:29:56;;;;;;;12.88;10.82;;;;;;;8.52;60.82;100578.31;10328775;28;20062;-78
2022/05/07 03:34:59;;;;;;;12.18;10.73;;;;;;;8.45;60.54;100576.84;10319190;28;20090;-78
2022/05/07 03:40:00;;;;;;;12.32;10.40;;;;;;;8.29;60.67;100575.78;10328472;28;21077;-78
2022/05/07 03:45:04;;;;;;;13.18;10.65;;;;;;;8.20;60.95;100576.16;10323632;28;20129;-78
2022/05/07 03:50:06;;;;;;;12.57;11.27;;;;;;;8.12;61.10;100583.44;10327308;28;20096;-78
2022/05/07 03:55:08;;;;;;;14.95;10.98;;;;;;;8.14;61.29;100586.84;10336267;28;20141;-78
2022/05/07 04:00:10;;;;;;;15.68;10.50;;;;;;;8.14;61.07;100579.03;10328158;28;20070;-78
2022/05/07 04:05:12;;;;;;;14.27;10.82;;;;;;;8.24;61.07;100588.16;10335601;28;20866;-78
2022/05/07 04:10:14;;;;;;;15.00;10.05;;;;;;;8.34;60.87;100584.28;10328043;28;20058;-78
2022/05/07 04:15:16;;;;;;;11.32;9.60;;;;;;;8.54;60.50;100589.53;10327719;28;20097;-78
2022/05/07 04:20:17;;;;;;;10.45;9.20;;;;;;;8.65;60.32;100588.16;10325269;28;20160;-78
2022/05/07 04:25:19;;;;;;;12.80;10.35;;;;;;;8.75;59.90;100597.31;10334938;28;20058;-78
2022/05/07 04:30:22;;;;;;;11.98;10.20;;;;;;;8.82;59.56;100597.91;10335701;28;20141;-78
2022/05/07 04:35:23;;;;;;;12.45;9.65;;;;;;;9.85;58.59;100602.00;10329222;28;20109;-78
2022/05/07 04:40:26;;;;;;;12.32;8.90;;;;;;;11.88;54.22;100584.72;10327697;28;20147;-78
2022/05/07 04:45:28;;;;;;;10.15;9.02;;;;;;;13.60;50.30;100583.31;10327470;28;20062;-78
2022/05/07 04:50:30;;;;;;;10.00;8.30;;;;;;;15.07;46.97;100577.16;10323265;28;20045;-78
2022/05/07 04:55:32;;;;;;;8.73;6.72;;;;;;;16.42;43.90;100572.81;10330363;28;20140;-78
2022/05/07 05:00:34;;;;;;;7.90;6.70;;;;;;;17.66;41.32;100569.41;10325227;28;20641;-78
2022/05/07 05:05:38;;;;;;;6.72;6.03;;;;;;;18.70;39.32;100563.50;10319366;28;20105;-78
2022/05/07 05:10:39;;;;;;;8.00;6.40;;;;;;;18.85;38.38;100562.19;10321555;28;20080;-78
2022/05/07 05:15:41;;;;;;;10.43;6.47;;;;;;;16.98;40.73;100582.63;10333363;28;20983;-78
2022/05/07 05:20:43;;;;;;;9.02;7.97;;;;;;;15.20;43.98;100588.56;10313094;28;20129;-78
2022/05/07 05:25:45;;;;;;;9.85;8.05;;;;;;;14.06;46.07;100599.69;10329985;28;20054;-78
2022/05/07 05:30:51;;;;;;;10.63;8.75;;;;;;;13.15;48.35;100608.88;10324077;28;20064;-78
2022/05/07 05:35:53;;;;;;;11.43;8.80;;;;;;;12.69;49.46;100610.72;10320981;28;20058;-78
2022/05/07 05:40:55;;;;;;;10.65;8.98;;;;;;;12.54;50.13;100609.81;10324216;28;20870;-78
2022/05/07 05:45:56;;;;;;;11.27;9.35;;;;;;;12.46;50.68;100614.66;10333664;28;20137;-78
2022/05/07 05:50:59;;;;;;;10.98;9.57;;;;;;;12.40;51.10;100607.13;10318309;28;20082;-77
2022/05/07 05:56:01;;;;;;;13.02;9.63;;;;;;;12.32;51.85;100605.88;10322081;28;20108;-77
2022/05/07 06:01:06;;;;;;;11.48;9.38;;;;;;;12.39;51.88;100607.22;10322509;28;20089;-77
2022/05/07 06:06:07;;;;;;;13.18;10.60;;;;;;;12.26;52.55;100603.56;10333715;28;20152;-77
2022/05/07 06:11:10;;;;;;;12.45;10.32;;;;;;;12.18;52.88;100605.75;10327320;28;20117;-78
2022/05/07 06:16:12;;;;;;;12.77;10.68;;;;;;;12.34;52.88;100617.13;10327863;28;20147;-78
2022/05/07 06:21:14;;;;;;;12.23;9.55;;;;;;;12.32;53.41;100608.47;10324636;28;20061;-77
2022/05/07 06:31:37;;;;;;;10.45;9.18;;;;;;;12.58;53.13;100619.19;10319046;28;20064;-77
2022/05/07 06:36:42;;;;;;;11.68;9.88;;;;;;;12.85;53.16;100616.75;10322599;28;20050;-77
2022/05/07 06:41:44;;;;;;;11.63;9.30;;;;;;;12.79;53.28;100623.22;10320968;28;20058;-78
2022/05/07 06:46:46;;;;;;;10.30;7.88;;;;;;;13.14;52.50;100615.91;10316310;28;20050;-78
2022/05/07 06:51:48;;;;;;;10.88;8.38;;;;;;;13.47;51.96;100610.44;10320518;28;20144;-78
2022/05/07 06:56:50;;;;;;;11.05;8.23;;;;;;;13.68;51.74;100609.97;10326700;28;20050;-78
2022/05/07 07:01:54;;;;;;;13.27;8.38;;;;;;;13.92;51.02;100609.38;10315068;28;20141;-79
2022/05/07 07:06:57;;;;;;;12.55;8.05;;;;;;;13.93;51.06;100604.03;10315031;28;20054;-78
2022/05/07 07:11:58;;;;;;;9.05;7.00;;;;;;;14.01;50.67;100609.66;10310696;28;20104;-79
2022/05/07 07:17:00;;;;;;;9.05;5.93;;;;;;;14.39;49.91;100601.94;10315830;28;20136;-79
2022/05/07 07:22:02;;;;;;;9.10;6.60;;;;;;;14.76;49.24;100597.78;10312376;28;20566;-79
2022/05/07 07:27:05;;;;;;;6.80;5.85;;;;;;;14.85;49.09;100597.16;10331814;28;20129;-78
2022/05/07 07:32:07;;;;;;;7.82;5.57;;;;;;;15.53;47.22;100593.31;10323654;28;20062;-79
2022/05/07 07:37:09;;;;;;;8.52;5.20;;;;;;;16.93;44.77;100587.44;10296854;28;20150;-79
2022/05/07 07:42:11;;;;;;;9.75;5.75;;;;;;;17.72;42.44;100575.06;10313229;28;20058;-79
2022/05/07 07:52:33;;;;;;;7.28;4.28;;;;;;;18.87;40.64;100580.66;10322243;28;20508;-80
2022/05/07 07:57:35;;;;;;;7.82;3.70;;;;;;;19.79;38.35;100578.78;10317732;28;20041;-81
2022/05/07 08:02:50;;;;;;;10.43;4.35;;;;;;;20.29;36.02;100569.03;10327392;28;20049;-80
2022/05/07 08:13:14;;;;;;;7.20;4.18;;;;;;;21.49;34.89;100572.00;10312322;28;20136;-80
2022/05/07 08:18:17;;;;;;;5.97;4.10;;;;;;;21.06;35.07;100577.84;10317845;28;20144;-80
2022/05/07 08:23:19;;;;;;;8.35;3.72;;;;;;;21.45;34.76;100566.16;10314190;28;20058;-79
2022/05/07 08:28:24;;;;;;;7.10;3.65;;;;;;;21.59;34.30;100575.47;10319483;28;20046;-80
2022/05/07 08:33:26;;;;;;;9.25;3.60;;;;;;;21.73;33.32;100564.34;10322195;28;20140;-80
2022/05/07 08:38:31;;;;;;;7.38;3.25;;;;;;;21.61;33.47;100569.03;10326470;28;20094;-82
2022/05/07 08:43:38;;;;;;;8.55;3.47;;;;;;;21.79;33.29;100555.75;10319823;28;20085;-80
2022/05/07 08:48:42;;;;;;;6.22;3.00;;;;;;;22.25;33.21;100555.63;10316737;28;20057;-80
2022/05/07 08:53:48;;;;;;;8.25;3.00;;;;;;;22.69;32.59;100549.41;10324005;28;20821;-80
2022/05/07 08:58:51;;;;;;;4.60;2.60;;;;;;;23.29;31.84;100544.16;10317507;28;20054;-80
2022/05/07 09:03:54;;;;;;;6.95;2.72;;;;;;;23.35;30.63;100546.22;10323702;28;20072;-81
2022/05/07 09:08:57;;;;;;;6.65;2.90;;;;;;;23.23;30.91;100531.44;10327302;28;20765;-80
2022/05/07 09:14:04;;;;;;;5.22;2.15;;;;;;;23.20;29.75;100529.09;10321534;28;20137;-80
2022/05/07 09:19:28;;;;;;;6.10;1.90;;;;;;;23.40;28.19;100530.53;10325966;28;20148;-81
2022/05/07 09:24:30;;;;;;;4.63;1.77;;;;;;;23.13;28.68;100522.72;10328779;28;20086;-81
2022/05/07 09:29:33;;;;;;;5.35;1.80;;;;;;;23.38;28.17;100525.38;10324250;28;20700;-81
2022/05/07 09:40:11;;;;;;;3.85;2.10;;;;;;;23.91;27.24;100522.44;10316546;28;20065;-81
2022/05/07 09:45:14;;;;;;;5.95;1.80;;;;;;;24.07;26.92;100516.31;10317024;28;20060;-81
2022/05/07 10:01:21;;;;;;;3.70;1.55;;;;;;;24.18;24.87;100505.31;10320053;28;20076;-81
2022/05/07 10:06:40;;;;;;;5.53;1.55;;;;;;;24.33;24.74;100506.34;10320183;28;20869;-81
2022/05/07 10:11:44;;;;;;;4.05;1.50;;;;;;;24.27;24.92;100497.16;10325840;28;20078;-81
2022/05/07 10:17:07;;;;;;;5.32;1.80;;;;;;;24.57;23.95;100500.97;10323780;28;20050;-80
2022/05/07 10:22:21;;;;;;;6.75;1.90;;;;;;;24.41;24.32;100494.81;10335519;28;20047;-81
2022/05/07 10:27:33;;;;;;;2.53;1.52;;;;;;;24.03;25.04;100490.91;10333791;28;20519;-80
2022/05/07 10:32:54;;;;;;;3.97;1.58;;;;;;;24.06;23.21;100487.91;10329524;28;20055;-80
2022/05/07 10:38:06;;;;;;;3.25;1.40;;;;;;;24.02;23.89;100486.56;10332398;28;20080;-80
2022/05/07 10:43:09;;;;;;;7.00;1.88;;;;;;;23.65;23.31;100484.31;10328280;28;20156;-80
2022/05/07 10:48:18;;;;;;;4.13;1.73;;;;;;;23.31;23.82;100484.28;10331098;28;20564;-80
2022/05/07 10:53:38;;;;;;;3.05;1.40;;;;;;;23.03;23.93;100484.63;10328979;28;20058;-81
2022/05/07 10:58:51;;;;;;;4.78;1.65;;;;;;;23.06;24.97;100473.66;10331373;28;20054;-80
2022/05/07 11:04:07;;;;;;;5.05;1.90;;;;;;;23.09;24.32;100476.00;10332051;28;20078;-80
2022/05/07 11:09:20;;;;;;;4.63;1.65;;;;;;;22.88;25.49;100467.56;10329603;28;20050;-80
2022/05/07 11:14:32;;;;;;;4.68;1.67;;;;;;;23.27;24.94;100471.41;10329077;28;20050;-80
2022/05/07 11:19:35;;;;;;;5.35;1.70;;;;;;;23.11;24.62;100460.66;10319175;28;20127;-80
2022/05/07 11:24:41;;;;;;;4.38;1.80;;;;;;;23.11;25.30;100452.66;10328242;28;20054;-80
2022/05/07 11:29:50;;;;;;;4.13;1.70;;;;;;;22.98;26.68;100457.59;10333804;28;20062;-80
2022/05/07 11:34:55;;;;;;;2.37;1.60;;;;;;;23.10;26.38;100456.34;10309479;23;20061;-67
2022/05/07 11:39:59;;;;;;;3.78;1.50;;;;;;;23.32;25.45;100451.28;10266987;28;20132;-65
2022/05/07 11:45:26;;;;;;;3.72;1.60;;;;;;;23.40;25.20;100453.13;10254314;28;20088;-66
2022/05/07 11:50:41;;;;;;;3.53;1.70;;;;;;;23.28;26.88;100446.41;10252346;28;20998;-66
2022/05/07 11:55:45;;;;;;;2.70;1.60;;;;;;;23.11;26.04;100444.66;10259526;28;20149;-65
2022/05/07 12:00:50;;;;;;;6.00;1.80;;;;;;;22.90;26.66;100438.88;10247192;28;20377;-65
2022/05/07 12:05:53;;;;;;;3.95;1.50;;;;;;;23.18;25.85;100435.03;10260604;28;20319;-66
2022/05/07 12:10:56;;;;;;;6.20;1.70;;;;;;;22.73;26.13;100431.75;10284840;28;20042;-66
2022/05/07 12:32:14;;;;;;;4.47;2.17;;;;;;;23.49;26.60;100404.97;10267170;28;20498;-65
2022/05/07 12:37:16;;;;;;;3.42;1.60;;;;;;;23.41;27.03;100399.59;10266193;28;20061;-65
2022/05/07 12:42:18;;;;;;;2.90;1.60;;;;;;;23.64;26.48;100402.50;10266519;28;20086;-65
2022/05/07 12:47:20;;;;;;;7.63;1.58;;;;;;;24.01;25.27;100400.22;10267471;28;20339;-66
2022/05/07 12:52:22;;;;;;;4.03;1.65;;;;;;;23.61;24.73;100391.31;10266148;28;20414;-66
2022/05/07 12:57:23;;;;;;;6.82;1.70;;;;;;;23.52;26.73;100384.28;10264187;28;20214;-65
2022/05/07 13:02:25;;;;;;;4.07;1.70;;;;;;;23.38;27.10;100380.38;10266346;28;20503;-65
2022/05/07 13:07:28;;;;;;;5.47;1.63;;;;;;;23.40;26.24;100368.59;10265296;28;20155;-66
2022/05/07 13:12:29;;;;;;;3.25;1.65;;;;;;;23.72;26.80;100364.28;10264902;28;20363;-65
2022/05/07 13:17:31;;;;;;;5.03;1.75;;;;;;;23.80;26.68;100365.13;10265840;28;20047;-66
2022/05/07 13:22:33;;;;;;;3.15;1.73;;;;;;;23.79;26.74;100362.63;10275919;28;20809;-66
2022/05/07 13:27:35;;;;;;;6.05;1.88;;;;;;;23.87;27.26;100354.63;10268018;28;20054;-66
2022/05/07 13:32:36;;;;;;;6.80;1.60;;;;;;;23.57;26.51;100356.09;10261208;28;20070;-66
2022/05/07 13:37:38;;;;;;;8.88;1.90;;;;;;;23.37;26.55;100347.50;10266445;28;20058;-66
2022/05/07 13:42:40;;;;;;;3.85;1.73;;;;;;;23.40;28.00;100341.88;10264013;28;20463;-66
2022/05/07 13:47:42;;;;;;;3.63;1.70;;;;;;;23.64;26.02;100343.75;10264505;28;20400;-65
2022/05/07 13:52:44;;;;;;;4.32;1.45;;;;;;;23.37;27.00;100339.50;10268496;28;20422;-66
2022/05/07 13:57:46;;;;;;;3.72;1.40;;;;;;;23.57;27.62;100340.09;10278394;28;20054;-66
2022/05/07 14:02:48;;;;;;;5.35;1.65;;;;;;;23.61;27.37;100343.25;10266790;28;20398;-66
2022/05/07 14:07:50;;;;;;;6.55;1.40;;;;;;;23.75;28.10;100331.91;10262674;28;20105;-66
2022/05/07 14:12:51;;;;;;;3.40;1.55;;;;;;;23.86;26.12;100334.28;10262107;28;20106;-66
2022/05/07 14:17:54;;;;;;;3.17;1.30;;;;;;;23.61;26.34;100332.56;10261574;28;20137;-65
2022/05/07 14:22:56;;;;;;;3.55;1.50;;;;;;;23.39;27.25;100331.34;10260160;28;20055;-66
2022/05/07 14:27:58;;;;;;;5.05;1.65;;;;;;;23.51;26.49;100316.72;10292165;28;20063;-67
2022/05/07 14:33:00;;;;;;;4.32;1.60;;;;;;;23.66;25.43;100308.88;10261881;28;20174;-65
2022/05/07 14:38:02;;;;;;;4.78;1.75;;;;;;;23.94;26.27;100300.34;10261482;28;20110;-66
2022/05/07 14:43:05;;;;;;;4.38;1.60;;;;;;;24.17;25.60;100298.69;10265679;28;20141;-66
2022/05/07 14:48:07;;;;;;;2.67;1.50;;;;;;;24.24;26.23;100304.19;10261090;28;20507;-66
2022/05/07 14:53:09;;;;;;;3.65;1.60;;;;;;;23.95;25.52;100293.16;10261484;28;20059;-66
2022/05/07 14:58:11;;;;;;;3.90;1.70;;;;;;;24.14;26.02;100282.97;10263104;28;20152;-66
2022/05/07 15:03:14;;;;;;;2.72;1.52;;;;;;;24.29;26.03;100283.97;10266847;28;20442;-66
2022/05/07 15:13:37;;;;;;;4.38;1.70;;;;;;;24.60;25.98;100280.50;10263972;28;20488;-67
2022/05/07 15:18:39;;;;;;;6.45;1.70;;;;;;;24.18;25.64;100289.66;10265384;28;20210;-67
2022/05/07 15:23:42;;;;;;;2.60;1.42;;;;;;;23.95;26.29;100283.31;10264664;28;20479;-67
2022/05/07 15:28:44;;;;;;;5.25;1.75;;;;;;;23.81;27.03;100289.34;10267453;28;20051;-66
2022/05/07 15:39:06;;;;;;;5.85;2.75;;;;;;;22.17;29.83;100317.63;10266949;28;20151;-66
2022/05/07 15:44:08;;;;;;;8.63;2.67;;;;;;;22.04;30.52;100327.84;10262181;28;20149;-67
2022/05/07 15:49:10;;;;;;;7.22;3.17;;;;;;;21.63;32.02;100330.13;10277770;28;20125;-67
2022/05/07 15:54:17;;;;;;;7.22;2.90;;;;;;;21.20;33.53;100331.81;10265416;28;20055;-66
2022/05/07 15:59:19;;;;;;;4.85;2.78;;;;;;;20.73;34.70;100333.72;10262552;28;20066;-67
2022/05/07 16:04:21;;;;;;;7.63;2.80;;;;;;;20.65;35.25;100336.28;10265370;28;20058;-67
2022/05/07 16:09:23;;;;;;;6.50;2.88;;;;;;;20.81;36.21;100334.69;10267299;28;20471;-67
2022/05/07 16:14:25;;;;;;;4.60;2.95;;;;;;;20.68;36.92;100341.31;10263258;28;20121;-67
2022/05/07 16:19:27;;;;;;;5.38;2.80;;;;;;;20.49;37.12;100344.84;10265507;28;20082;-67
2022/05/07 16:29:49;;;;;;;;;;;;;;;19.83;38.23;100337.84;10265545;28;20141;-67
2022/05/07 16:34:50;;;;;;;6.25;2.70;;;;;;;20.12;38.07;100331.53;10262797;28;19952;-67
2022/05/07 16:39:52;;;;;;;10.15;3.15;;;;;;;20.13;39.17;100332.38;10261690;28;20051;-66
2022/05/07 16:44:54;;;;;;;4.10;2.50;;;;;;;19.97;38.75;100338.25;10264139;28;20050;-66
2022/05/07 16:49:56;;;;;;;5.80;3.25;;;;;;;19.89;39.69;100334.63;10257099;28;20053;-66
2022/05/07 16:54:58;;;;;;;6.05;3.05;;;;;;;19.97;39.65;100332.13;10257907;28;20455;-66
2022/05/07 17:00:00;;;;;;;3.90;2.75;;;;;;;19.81;40.39;100337.97;10258685;28;20046;-67
2022/05/07 17:05:05;;;;;;;4.38;2.90;;;;;;;19.48;41.14;100348.16;10263350;28;20250;-67
2022/05/07 17:10:07;;;;;;;10.30;3.28;;;;;;;19.30;42.18;100340.84;10262906;28;20473;-67
2022/05/07 17:15:09;;;;;;;5.70;2.60;;;;;;;19.00;42.95;100348.00;10259370;28;20058;-67
2022/05/07 17:20:11;;;;;;;6.10;2.90;;;;;;;18.84;45.87;100352.97;10262762;28;20134;-66
2022/05/07 17:25:13;;;;;;;6.80;3.03;;;;;;;18.83;45.91;100359.25;10259337;28;20089;-67
2022/05/07 17:30:15;;;;;;;9.20;3.25;;;;;;;18.47;47.91;100355.31;10261398;28;20161;-67
2022/05/07 17:35:17;;;;;;;6.68;3.50;;;;;;;18.63;50.21;100350.38;10261979;28;20459;-67
2022/05/07 17:40:19;;;;;;;7.45;3.22;;;;;;;18.55;50.34;100364.28;10269633;28;20073;-67
2022/05/07 17:45:21;;;;;;;4.70;3.20;;;;;;;18.42;50.91;100371.59;10278577;28;20098;-66
2022/05/07 17:50:22;;;;;;;6.63;3.55;;;;;;;18.07;51.22;100381.66;10261802;28;20435;-65
2022/05/07 17:55:24;;;;;;;6.82;3.85;;;;;;;17.87;52.39;100379.00;10271693;28;20553;-66
2022/05/07 18:00:28;;;;;;;5.28;3.92;;;;;;;17.94;53.52;100381.00;10274302;28;20157;-67
2022/05/07 18:05:32;;;;;;;8.00;4.40;;;;;;;18.03;53.97;100376.75;10260715;28;20533;-67
2022/05/07 18:10:33;;;;;;;8.88;4.47;;;;;;;18.04;54.11;100383.69;10262343;28;20058;-67
2022/05/07 18:15:36;;;;;;;6.10;4.18;;;;;;;17.94;54.57;100382.78;10280511;28;20367;-66
2022/05/07 18:20:38;;;;;;;7.43;3.78;;;;;;;17.94;53.91;100393.38;10280304;28;20374;-66
2022/05/07 18:25:40;;;;;;;4.80;3.70;;;;;;;18.00;54.15;100390.22;10258744;28;20156;-66
2022/05/07 18:30:42;;;;;;;7.30;4.40;;;;;;;17.91;54.72;100396.28;10259563;28;20046;-66
2022/05/07 18:35:44;;;;;;;6.85;4.20;;;;;;;17.59;55.04;100410.34;10279393;28;20413;-66
2022/05/07 18:46:18;;;;;;;6.63;4.18;;;;;;;17.62;54.99;100410.09;10282449;28;20543;-66
2022/05/07 18:51:20;;;;;;;5.97;4.13;;;;;;;17.58;55.22;100415.75;10265409;28;20599;-66
2022/05/07 19:01:43;;;;;;;6.57;4.82;;;;;;;17.41;55.51;100424.19;10268343;28;20071;-66
2022/05/07 19:06:46;;;;;;;6.32;4.05;;;;;;;17.32;54.91;100423.13;10266990;28;20122;-60
2022/05/07 19:11:48;;;;;;;5.78;4.03;;;;;;;17.34;54.78;100429.16;10267134;28;20528;-60
2022/05/07 19:16:49;;;;;;;6.40;4.43;;;;;;;17.38;55.21;100441.19;10267447;28;20137;-60
2022/05/07 19:21:53;;;;;;;6.40;3.97;;;;;;;17.31;54.49;100436.44;10290493;28;20060;-61
2022/05/07 19:27:01;;;;;;;5.70;4.20;;;;;;;17.25;54.70;100440.44;10273694;28;20055;-60
2022/05/07 19:32:03;;;;;;;8.02;4.32;;;;;;;17.14;54.54;100444.88;10276445;28;20085;-60
2022/05/07 19:37:05;;;;;;;5.07;4.10;;;;;;;17.14;54.95;100448.34;10267847;28;20455;-60
2022/05/07 19:42:07;;;;;;;6.05;4.10;;;;;;;17.22;54.88;100453.06;10267823;28;20500;-60
2022/05/07 19:47:08;;;;;;;7.40;4.15;;;;;;;17.20;54.90;100450.50;10264176;28;20060;-60
2022/05/07 19:52:10;;;;;;;8.82;4.20;;;;;;;17.18;54.88;100463.00;10266227;28;20605;-60
2022/05/07 19:57:12;;;;;;;5.85;4.28;;;;;;;17.13;55.61;100461.69;10265749;28;20418;-59
2022/05/07 20:02:14;;;;;;;7.63;4.30;;;;;;;17.06;55.09;100468.44;10266530;28;20582;-59
2022/05/07 20:07:16;;;;;;;5.57;4.18;;;;;;;17.00;55.44;100480.31;10264804;28;20051;-60
2022/05/07 20:12:20;;;;;;;7.18;4.30;;;;;;;16.93;55.22;100484.41;10266219;28;20050;-60
2022/05/07 20:17:21;;;;;;;7.35;3.83;;;;;;;16.99;53.92;100487.41;10263575;28;20150;-60
2022/05/07 20:22:24;;;;;;;6.32;4.43;;;;;;;16.99;54.42;100490.06;10263159;28;20054;-60
2022/05/07 20:27:25;;;;;;;7.00;4.90;;;;;;;16.78;53.96;100498.78;10265278;28;20189;-60
2022/05/07 20:32:27;;;;;;;6.55;4.40;;;;;;;16.59;53.69;100507.25;10275323;28;20043;-59
2022/05/07 20:37:29;;;;;;;6.28;4.78;;;;;;;16.67;53.67;100507.50;10279252;28;20059;-60
2022/05/07 20:42:31;;;;;;;12.05;4.68;;;;;;;16.75;53.86;100517.50;10265493;28;20332;-60
2022/05/07 20:47:32;;;;;;;8.68;5.13;;;;;;;16.79;54.65;100516.31;10286457;28;20125;-60
2022/05/07 20:52:34;;;;;;;9.25;6.13;;;;;;;16.70;54.76;100519.66;10282202;28;20178;-60
2022/05/07 20:57:36;;;;;;;7.85;5.88;;;;;;;16.78;54.03;100517.25;10285384;28;20054;-59
2022/05/07 21:02:37;;;;;;;8.77;5.65;;;;;;;16.75;53.68;100528.06;10267212;28;20166;-60
2022/05/07 21:07:40;;;;;;;8.88;6.22;;;;;;;16.68;54.28;100517.13;10273227;28;20054;-59
2022/05/07 21:12:43;;;;;;;7.43;5.00;;;;;;;16.61;55.10;100526.44;10263705;28;20082;-60
2022/05/07 21:17:45;;;;;;;8.35;5.40;;;;;;;16.58;55.51;100531.97;10261208;28;20051;-60
2022/05/07 21:22:47;;;;;;;6.85;4.95;;;;;;;16.53;55.69;100536.75;10263893;28;20567;-60
2022/05/07 21:27:49;;;;;;;7.78;6.30;;;;;;;16.39;55.86;100542.19;10263349;28;20158;-59
2022/05/07 21:32:50;;;;;;;6.43;4.38;;;;;;;16.40;55.11;100543.03;10263535;28;20667;-60
2022/05/07 21:37:52;;;;;;;10.27;6.60;;;;;;;16.47;55.26;100549.59;10262973;28;20447;-59
2022/05/07 21:42:54;;;;;;;10.40;6.70;;;;;;;16.45;55.59;100554.13;10263685;28;20218;-59
2022/05/07 21:47:57;;;;;;;8.70;5.95;;;;;;;16.40;55.65;100550.97;10261394;28;20133;-59
2022/05/07 21:52:59;;;;;;;9.63;6.03;;;;;;;16.17;56.08;100564.06;10263680;28;20138;-59
2022/05/07 21:58:01;;;;;;;10.13;6.63;;;;;;;15.95;56.73;100565.72;10261236;28;20594;-60
2022/05/07 22:03:03;;;;;;;10.15;7.00;;;;;;;15.93;55.88;100562.34;10262323;28;20055;-60
2022/05/07 22:08:06;;;;;;;12.20;9.73;;;;;;;15.77;56.06;100564.38;10262979;28;20055;-60
2022/05/07 22:13:09;;;;;;;10.98;7.93;;;;;;;15.73;56.13;100562.94;10260083;28;20453;-60
2022/05/07 22:18:11;;;;;;;13.05;8.93;;;;;;;15.74;56.17;100565.44;10261698;28;20047;-60
2022/05/07 22:23:18;;;;;;;13.57;10.50;;;;;;;15.62;56.51;100562.81;10262223;28;20050;-60
2022/05/07 22:28:20;;;;;;;10.90;9.10;;;;;;;15.47;56.68;100569.97;10261988;28;20150;-60
2022/05/07 22:33:22;;;;;;;10.32;8.77;;;;;;;15.18;57.14;100571.16;10261794;28;20105;-59
2022/05/07 22:38:23;;;;;;;10.35;8.30;;;;;;;15.12;57.00;100576.84;10265317;28;20069;-60
2022/05/07 22:43:25;;;;;;;10.02;7.38;;;;;;;15.15;56.96;100576.63;10264343;28;20117;-60
2022/05/07 22:48:28;;;;;;;9.13;6.60;;;;;;;15.28;56.64;100577.50;10260963;28;20055;-59
2022/05/07 22:53:30;;;;;;;9.63;6.93;;;;;;;15.31;56.90;100577.28;10260362;28;20051;-60
2022/05/07 22:58:32;;;;;;;10.50;7.47;;;;;;;15.26;57.26;100580.25;10262058;28;20145;-60
2022/05/07 23:03:34;;;;;;;9.98;7.15;;;;;;;15.16;58.21;100579.16;10258493;28;20086;-61
2022/05/07 23:08:36;;;;;;;8.25;6.10;;;;;;;15.11;58.34;100577.78;10258498;28;20047;-60
2022/05/07 23:13:38;;;;;;;9.48;6.90;;;;;;;14.90;58.54;100579.28;10259329;28;20467;-60
2022/05/07 23:18:40;;;;;;;12.98;7.50;;;;;;;14.70;58.96;100582.34;10259740;28;20047;-61
2022/05/07 23:23:46;;;;;;;14.52;9.27;;;;;;;14.73;59.09;100579.53;10266564;28;20047;-60
2022/05/07 23:28:50;;;;;;;14.48;10.05;;;;;;;14.56;58.69;100586.75;10269406;28;20744;-60
2022/05/07 23:33:52;;;;;;;11.68;8.27;;;;;;;14.42;59.05;100581.53;10264764;28;20085;-60
2022/05/07 23:38:54;;;;;;;11.02;7.40;;;;;;;14.41;59.36;100573.75;10267402;28;20042;-61
2022/05/07 23:43:55;;;;;;;12.57;7.63;;;;;;;14.40;58.10;100579.94;10265817;28;20097;-61
2022/05/07 23:48:57;;;;;;;10.55;7.68;;;;;;;14.30;58.35;100586.75;10266514;28;20065;-60
2022/05/07 23:54:00;;;;;;;12.13;7.38;;;;;;;14.41;58.02;100585.09;10263315;28;20194;-60
2022/05/07 23:59:01;;;;;;;9.98;7.03;;;;;;;14.42;58.38;100573.63;10263303;28;20542;-60
